createdAt,value
2023-02-22T00:02:25.391Z,9.39
2023-02-22T00:04:53.510Z,9.43
2023-02-22T00:07:23.863Z,9.46
2023-02-22T00:09:53.278Z,9.46
2023-02-22T00:12:21.317Z,9.44
2023-02-22T00:14:51.271Z,9.42
2023-02-22T00:17:20.617Z,9.37
2023-02-22T00:19:50.136Z,9.36
2023-02-22T00:22:19.075Z,9.35
2023-02-22T00:24:48.347Z,9.36
2023-02-22T00:27:17.987Z,9.36
2023-02-22T00:29:46.263Z,9.36
2023-02-22T00:32:15.474Z,9.32
2023-02-22T00:34:45.327Z,9.28
2023-02-22T00:37:13.340Z,9.20
2023-02-22T00:39:41.544Z,9.14
2023-02-22T00:42:09.651Z,9.12
2023-02-22T00:44:39.035Z,9.11
2023-02-22T00:47:07.633Z,9.05
2023-02-22T00:49:36.148Z,9.02
2023-02-22T00:52:04.782Z,9.01
2023-02-22T00:54:33.000Z,8.98
2023-02-22T00:57:01.005Z,8.95
2023-02-22T00:59:31.217Z,8.94
2023-02-22T01:02:00.628Z,8.93
2023-02-22T01:04:28.888Z,8.92
2023-02-22T01:06:57.204Z,8.93
2023-02-22T01:09:25.385Z,8.95
2023-02-22T01:11:56.480Z,8.97
2023-02-22T01:14:26.688Z,9.00
2023-02-22T01:16:55.359Z,9.01
2023-02-22T01:19:25.411Z,9.02
2023-02-22T01:21:54.715Z,9.00
2023-02-22T01:24:22.757Z,8.94
2023-02-22T01:26:53.862Z,8.85
2023-02-22T01:29:22.449Z,8.70
2023-02-22T01:31:55.121Z,8.56
2023-02-22T01:34:26.080Z,8.49
2023-02-22T01:36:54.121Z,8.46
2023-02-22T01:39:22.213Z,8.42
2023-02-22T01:41:50.296Z,8.42
2023-02-22T01:44:22.822Z,8.40
2023-02-22T01:46:51.028Z,8.41
2023-02-22T01:49:19.511Z,8.38
2023-02-22T01:51:53.060Z,8.37
2023-02-22T01:54:25.211Z,8.35
2023-02-22T01:57:07.647Z,8.38
2023-02-22T01:59:39.109Z,8.40
2023-02-22T02:02:07.746Z,8.41
2023-02-22T02:04:36.465Z,8.42
2023-02-22T02:07:08.579Z,8.41
2023-02-22T02:09:40.977Z,8.46
2023-02-22T02:12:11.120Z,8.43
2023-02-22T02:14:40.568Z,8.41
2023-02-22T02:17:11.003Z,8.39
2023-02-22T02:19:46.433Z,8.35
2023-02-22T02:22:28.777Z,8.26
2023-02-22T02:25:32.381Z,8.17
2023-02-22T02:28:24.975Z,8.13
2023-02-22T02:31:30.552Z,8.11
2023-02-22T02:34:04.287Z,8.10
2023-02-22T02:36:41.539Z,8.06
2023-02-22T02:39:19.486Z,7.96
2023-02-22T02:41:51.122Z,7.85
2023-02-22T02:44:25.602Z,7.86
2023-02-22T02:47:00.967Z,7.81
2023-02-22T02:49:35.047Z,7.70
2023-02-22T02:52:05.786Z,7.61
2023-02-22T02:54:36.910Z,7.48
2023-02-22T02:57:05.906Z,7.44
2023-02-22T02:59:37.322Z,7.36
2023-02-22T03:02:21.247Z,7.31
2023-02-22T03:05:12.951Z,7.25
2023-02-22T03:07:51.025Z,7.22
2023-02-22T03:10:44.815Z,7.20
2023-02-22T03:13:20.277Z,7.19
2023-02-22T03:15:57.115Z,7.21
2023-02-22T03:18:30.347Z,7.19
2023-02-22T03:21:06.406Z,7.16
2023-02-22T03:23:38.727Z,7.16
2023-02-22T03:26:12.302Z,7.18
2023-02-22T03:28:44.363Z,7.16
2023-02-22T03:31:17.305Z,7.12
2023-02-22T03:33:50.211Z,7.13
2023-02-22T03:36:25.030Z,7.15
2023-02-22T03:38:55.972Z,7.15
2023-02-22T03:41:27.435Z,7.16
2023-02-22T03:44:02.098Z,7.18
2023-02-22T03:46:31.373Z,7.23
2023-02-22T03:49:03.703Z,7.29
2023-02-22T03:51:33.205Z,7.34
2023-02-22T03:54:01.341Z,7.40
2023-02-22T03:56:36.542Z,7.44
2023-02-22T03:59:06.948Z,7.46
2023-02-22T04:01:35.597Z,7.42
2023-02-22T04:04:04.029Z,7.44
2023-02-22T04:06:33.572Z,7.44
2023-02-22T04:09:01.497Z,7.44
2023-02-22T04:11:29.704Z,7.46
2023-02-22T04:13:58.454Z,7.48
2023-02-22T04:16:26.406Z,7.51
2023-02-22T04:18:54.413Z,7.54
2023-02-22T04:21:22.469Z,7.59
2023-02-22T04:23:52.143Z,7.63
2023-02-22T04:26:20.403Z,7.68
2023-02-22T04:28:48.358Z,7.70
2023-02-22T04:31:16.898Z,7.66
2023-02-22T04:33:45.595Z,7.61
2023-02-22T04:36:16.183Z,7.48
2023-02-22T04:38:44.465Z,7.39
2023-02-22T04:41:14.078Z,7.33
2023-02-22T04:43:42.085Z,7.32
2023-02-22T04:46:10.079Z,7.30
2023-02-22T04:48:38.030Z,7.23
2023-02-22T04:51:06.780Z,7.19
2023-02-22T04:53:34.883Z,7.20
2023-02-22T04:56:02.996Z,7.19
2023-02-22T04:58:32.604Z,7.16
2023-02-22T05:01:00.889Z,7.18
2023-02-22T05:03:28.904Z,7.22
2023-02-22T05:05:57.054Z,7.27
2023-02-22T05:08:25.147Z,7.34
2023-02-22T05:10:53.184Z,7.39
2023-02-22T05:13:21.207Z,7.45
2023-02-22T05:15:50.605Z,7.51
2023-02-22T05:18:18.617Z,7.56
2023-02-22T05:20:46.543Z,7.56
2023-02-22T05:23:14.586Z,7.55
2023-02-22T05:25:42.789Z,7.51
2023-02-22T05:28:14.812Z,7.51
2023-02-22T05:30:43.055Z,7.51
2023-02-22T05:33:13.112Z,7.52
2023-02-22T05:35:41.333Z,7.51
2023-02-22T05:38:11.109Z,7.50
2023-02-22T05:40:39.125Z,7.48
2023-02-22T05:43:07.130Z,7.45
2023-02-22T05:45:36.245Z,7.38
2023-02-22T05:48:04.566Z,7.31
2023-02-22T05:50:35.086Z,7.22
2023-02-22T05:53:03.425Z,7.17
2023-02-22T05:55:31.462Z,7.07
2023-02-22T05:57:59.411Z,7.00
2023-02-22T06:00:30.410Z,6.95
2023-02-22T06:02:59.389Z,6.94
2023-02-22T06:05:28.117Z,6.91
2023-02-22T06:07:58.504Z,6.87
2023-02-22T06:10:27.121Z,6.90
2023-02-22T06:12:55.947Z,6.95
2023-02-22T06:15:25.605Z,6.98
2023-02-22T06:17:54.064Z,6.98
2023-02-22T06:20:24.667Z,6.92
2023-02-22T06:22:55.419Z,6.85
2023-02-22T06:25:26.795Z,6.86
2023-02-22T06:27:54.938Z,6.89
2023-02-22T06:30:25.440Z,6.85
2023-02-22T06:32:53.575Z,6.85
2023-02-22T06:35:21.650Z,6.84
2023-02-22T06:37:49.666Z,6.87
2023-02-22T06:40:17.703Z,6.88
2023-02-22T06:42:49.091Z,6.88
2023-02-22T06:45:18.108Z,6.92
2023-02-22T06:47:46.261Z,6.92
2023-02-22T06:50:22.435Z,6.89
2023-02-22T06:52:50.500Z,6.90
2023-02-22T06:55:20.419Z,6.90
2023-02-22T06:57:49.886Z,6.90
2023-02-22T07:00:19.284Z,6.98
2023-02-22T07:02:48.494Z,7.00
2023-02-22T07:05:18.332Z,7.02
2023-02-22T07:07:46.344Z,7.07
2023-02-22T07:10:20.855Z,7.18
2023-02-22T07:12:52.584Z,7.16
2023-02-22T07:15:23.647Z,7.14
2023-02-22T07:17:52.832Z,7.12
2023-02-22T07:20:21.734Z,7.13
2023-02-22T07:22:51.240Z,7.12
2023-02-22T07:25:19.789Z,7.17
2023-02-22T07:27:48.102Z,7.18
2023-02-22T07:30:25.452Z,7.17
2023-02-22T07:32:53.926Z,7.15
2023-02-22T07:35:25.287Z,7.20
2023-02-22T07:37:55.755Z,7.23
2023-02-22T07:40:25.557Z,7.31
2023-02-22T07:42:56.061Z,7.40
2023-02-22T07:45:27.727Z,7.46
2023-02-22T07:47:55.976Z,7.55
2023-02-22T07:50:25.585Z,7.72
2023-02-22T07:52:55.865Z,7.87
2023-02-22T07:55:26.343Z,7.95
2023-02-22T07:57:56.155Z,8.03
2023-02-22T08:00:27.908Z,8.09
2023-02-22T08:02:56.255Z,8.13
2023-02-22T08:05:26.836Z,8.17
2023-02-22T08:07:55.192Z,8.26
2023-02-22T08:10:25.423Z,8.34
2023-02-22T08:12:54.894Z,8.45
2023-02-22T08:15:28.635Z,8.57
2023-02-22T08:17:57.567Z,8.66
2023-02-22T08:20:26.357Z,8.75
2023-02-22T08:22:55.066Z,8.83
2023-02-22T08:25:26.344Z,9.03
2023-02-22T08:28:01.283Z,9.22
2023-02-22T08:30:35.005Z,9.35
2023-02-22T08:33:04.199Z,9.40
2023-02-22T08:35:33.765Z,9.45
2023-02-22T08:38:04.078Z,9.59
2023-02-22T08:40:34.598Z,9.64
2023-02-22T08:43:03.034Z,9.48
2023-02-22T08:45:32.511Z,9.32
2023-02-22T08:48:00.924Z,9.13
2023-02-22T08:50:33.012Z,8.99
2023-02-22T08:53:02.637Z,8.92
2023-02-22T08:55:35.024Z,8.86
2023-02-22T08:58:04.112Z,8.74
2023-02-22T09:00:34.771Z,8.72
2023-02-22T09:03:04.368Z,8.85
2023-02-22T09:05:33.228Z,8.97
2023-02-22T09:08:02.018Z,9.09
2023-02-22T09:10:32.501Z,9.32
2023-02-22T09:13:02.353Z,9.62
2023-02-22T09:15:30.996Z,9.96
2023-02-22T09:18:00.702Z,10.21
2023-02-22T09:20:29.497Z,10.55
2023-02-22T09:22:58.565Z,10.76
2023-02-22T09:25:27.345Z,10.85
2023-02-22T09:27:56.858Z,10.98
2023-02-22T09:30:27.821Z,11.10
2023-02-22T09:32:57.560Z,11.31
2023-02-22T09:35:28.331Z,11.43
2023-02-22T09:37:57.473Z,11.46
2023-02-22T09:40:29.992Z,11.35
2023-02-22T09:43:10.271Z,11.30
2023-02-22T09:45:48.400Z,11.38
2023-02-22T09:48:22.365Z,11.62
2023-02-22T09:50:59.536Z,11.92
2023-02-22T09:53:36.265Z,12.20
2023-02-22T09:56:11.078Z,12.46
2023-02-22T09:58:43.204Z,12.66
2023-02-22T10:01:27.133Z,13.06
2023-02-22T10:04:01.506Z,14.25
2023-02-22T10:06:33.653Z,16.57
2023-02-22T10:09:08.010Z,19.25
2023-02-22T10:11:50.790Z,21.99
2023-02-22T10:14:44.149Z,24.60
2023-02-22T10:17:22.448Z,26.89
2023-02-22T10:20:06.239Z,28.73
2023-02-22T10:22:51.688Z,30.06
2023-02-22T10:25:23.195Z,30.79
2023-02-22T10:27:58.937Z,31.27
2023-02-22T10:30:33.973Z,31.23
2023-02-22T10:33:11.674Z,31.11
2023-02-22T10:35:42.051Z,31.09
2023-02-22T10:38:19.413Z,31.53
2023-02-22T10:40:51.953Z,31.80
2023-02-22T10:43:20.045Z,31.66
2023-02-22T10:45:48.308Z,31.61
2023-02-22T10:48:19.526Z,31.86
2023-02-22T10:50:48.598Z,31.36
2023-02-22T10:53:17.982Z,31.06
2023-02-22T10:56:09.150Z,31.20
2023-02-22T10:58:45.978Z,31.82
2023-02-22T11:01:27.383Z,32.31
2023-02-22T11:04:00.440Z,31.57
2023-02-22T11:06:29.164Z,30.44
2023-02-22T11:09:11.989Z,30.62
2023-02-22T11:11:42.414Z,31.82
2023-02-22T11:14:11.910Z,33.61
2023-02-22T11:16:43.573Z,33.62
2023-02-22T11:19:31.401Z,32.50
2023-02-22T11:22:11.388Z,32.50
2023-02-22T11:24:50.742Z,32.54
2023-02-22T11:27:28.552Z,33.27
2023-02-22T11:30:27.443Z,31.89
2023-02-22T11:32:59.100Z,32.14
2023-02-22T11:35:41.350Z,32.57
2023-02-22T11:38:18.022Z,33.11
2023-02-22T11:40:48.855Z,32.67
2023-02-22T11:43:18.854Z,31.35
2023-02-22T11:46:03.253Z,29.53
2023-02-22T11:48:34.855Z,27.62
2023-02-22T11:51:27.995Z,25.48
2023-02-22T11:54:11.056Z,23.84
2023-02-22T11:56:44.471Z,22.49
2023-02-22T11:59:23.122Z,21.08
2023-02-22T12:02:00.211Z,19.76
2023-02-22T12:04:51.954Z,18.93
2023-02-22T12:07:38.300Z,18.61
2023-02-22T12:10:19.696Z,18.34
2023-02-22T12:13:05.012Z,18.19
2023-02-22T12:15:40.979Z,17.78
2023-02-22T12:18:20.887Z,17.42
2023-02-22T12:20:56.671Z,17.04
2023-02-22T12:23:32.255Z,17.01
2023-02-22T12:26:05.340Z,17.16
2023-02-22T12:28:39.464Z,17.36
2023-02-22T12:31:22.753Z,17.61
2023-02-22T12:34:01.128Z,17.81
2023-02-22T12:36:37.228Z,17.96
2023-02-22T12:39:12.908Z,18.12
2023-02-22T12:41:48.007Z,18.09
2023-02-22T12:44:21.635Z,17.97
2023-02-22T12:46:53.380Z,17.84
2023-02-22T12:49:30.179Z,17.75
2023-02-22T12:52:20.354Z,17.68
2023-02-22T12:54:57.685Z,17.56
2023-02-22T12:57:37.288Z,17.47
2023-02-22T13:00:15.090Z,17.36
2023-02-22T13:02:48.755Z,17.22
2023-02-22T13:05:18.780Z,17.08
2023-02-22T13:07:57.448Z,16.95
2023-02-22T13:10:40.413Z,16.99
2023-02-22T13:13:19.881Z,16.98
2023-02-22T13:15:54.555Z,16.96
2023-02-22T13:18:30.471Z,16.90
2023-02-22T13:21:03.898Z,16.88
2023-02-22T13:23:41.628Z,16.90
2023-02-22T13:26:17.703Z,16.96
2023-02-22T13:28:50.134Z,16.93
2023-02-22T13:31:51.044Z,16.96
2023-02-22T13:34:54.517Z,16.97
2023-02-22T13:37:51.585Z,16.90
2023-02-22T13:40:52.855Z,16.83
2023-02-22T13:43:36.719Z,16.69
2023-02-22T13:46:43.181Z,16.60
2023-02-22T13:49:29.988Z,16.45
2023-02-22T13:52:00.945Z,16.36
2023-02-22T13:54:36.410Z,16.35
2023-02-22T13:57:18.293Z,16.33
2023-02-22T13:59:47.289Z,16.28
2023-02-22T14:02:36.792Z,16.30
2023-02-22T14:05:41.659Z,16.30
2023-02-22T14:08:48.955Z,16.25
2023-02-22T14:11:56.991Z,16.25
2023-02-22T14:14:25.895Z,16.28
2023-02-22T14:17:27.157Z,16.35
2023-02-22T14:20:21.728Z,16.37
2023-02-22T14:22:53.050Z,16.42
2023-02-22T14:25:38.993Z,16.43
2023-02-22T14:28:09.675Z,16.50
2023-02-22T14:30:40.344Z,16.47
2023-02-22T14:33:51.726Z,16.43
2023-02-22T14:36:22.401Z,16.38
2023-02-22T14:38:54.445Z,16.26
2023-02-22T14:41:28.856Z,16.29
2023-02-22T14:43:59.134Z,16.24
2023-02-22T14:46:31.855Z,16.19
2023-02-22T14:49:04.276Z,16.14
2023-02-22T14:51:41.902Z,16.09
2023-02-22T14:54:20.609Z,16.03
2023-02-22T14:57:01.121Z,15.97
2023-02-22T14:59:29.665Z,15.93
2023-02-22T15:02:11.786Z,15.85
2023-02-22T15:04:44.138Z,15.78
2023-02-22T15:07:27.377Z,15.70
2023-02-22T15:10:24.002Z,15.69
2023-02-22T15:13:09.857Z,15.70
2023-02-22T15:15:40.841Z,15.72
2023-02-22T15:18:19.972Z,15.68
2023-02-22T15:20:55.983Z,15.59
2023-02-22T15:23:30.306Z,15.54
2023-02-22T15:25:59.031Z,15.47
2023-02-22T15:28:31.576Z,15.51
2023-02-22T15:31:24.368Z,15.47
2023-02-22T15:33:54.784Z,15.37
2023-02-22T15:36:27.660Z,15.25
2023-02-22T15:38:57.073Z,15.19
2023-02-22T15:41:29.863Z,15.18
2023-02-22T15:44:23.285Z,15.14
2023-02-22T15:46:54.486Z,15.09
2023-02-22T15:49:24.657Z,15.01
2023-02-22T15:52:05.356Z,14.95
2023-02-22T15:54:41.658Z,14.90
2023-02-22T15:57:10.392Z,14.86
2023-02-22T15:59:46.798Z,14.81
2023-02-22T16:02:32.990Z,14.69
2023-02-22T16:05:04.386Z,14.67
2023-02-22T16:07:33.789Z,14.59
2023-02-22T16:10:09.261Z,14.54
2023-02-22T16:12:37.475Z,14.47
2023-02-22T16:15:17.761Z,14.35
2023-02-22T16:18:00.911Z,14.27
2023-02-22T16:20:36.223Z,14.18
2023-02-22T16:23:24.653Z,14.00
2023-02-22T16:26:08.648Z,13.81
2023-02-22T16:28:36.692Z,13.51
2023-02-22T16:31:06.185Z,13.39
2023-02-22T16:33:34.799Z,13.30
2023-02-22T16:36:08.241Z,13.25
2023-02-22T16:38:38.576Z,13.08
2023-02-22T16:41:07.667Z,13.01
2023-02-22T16:43:37.519Z,12.97
2023-02-22T16:46:07.982Z,12.97
2023-02-22T16:48:38.271Z,12.98
2023-02-22T16:51:14.935Z,12.92
2023-02-22T16:53:43.190Z,12.85
2023-02-22T16:56:12.993Z,12.75
2023-02-22T16:58:42.228Z,12.64
2023-02-22T17:01:12.894Z,12.58
2023-02-22T17:03:40.974Z,12.62
2023-02-22T17:06:11.121Z,12.67
2023-02-22T17:08:39.631Z,12.70
2023-02-22T17:11:09.067Z,12.76
2023-02-22T17:13:37.230Z,12.79
2023-02-22T17:16:05.806Z,12.80
2023-02-22T17:18:35.816Z,12.81
2023-02-22T17:21:04.088Z,12.82
2023-02-22T17:23:32.184Z,12.84
2023-02-22T17:26:02.252Z,12.84
2023-02-22T17:28:31.569Z,12.86
2023-02-22T17:31:02.379Z,12.82
2023-02-22T17:33:33.918Z,12.75
2023-02-22T17:36:05.183Z,12.65
2023-02-22T17:38:34.821Z,12.55
2023-02-22T17:41:03.776Z,12.42
2023-02-22T17:43:32.080Z,12.29
2023-02-22T17:46:00.601Z,12.18
2023-02-22T17:48:28.569Z,12.10
2023-02-22T17:50:56.571Z,12.06
2023-02-22T17:53:26.035Z,11.97
2023-02-22T17:55:54.166Z,12.01
2023-02-22T17:58:23.774Z,12.02
2023-02-22T18:00:57.264Z,11.98
2023-02-22T18:03:26.556Z,11.97
2023-02-22T18:05:58.719Z,11.97
2023-02-22T18:08:30.024Z,11.99
2023-02-22T18:10:58.140Z,12.01
2023-02-22T18:13:27.962Z,12.06
2023-02-22T18:16:00.214Z,12.12
2023-02-22T18:18:28.532Z,12.22
2023-02-22T18:20:59.960Z,12.32
2023-02-22T18:23:31.515Z,12.37
2023-02-22T18:26:10.666Z,12.39
2023-02-22T18:28:40.069Z,12.38
2023-02-22T18:31:09.292Z,12.38
2023-02-22T18:33:37.457Z,12.37
2023-02-22T18:36:06.152Z,12.34
2023-02-22T18:38:35.609Z,12.40
2023-02-22T18:41:05.806Z,12.48
2023-02-22T18:43:35.705Z,12.48
2023-02-22T18:46:08.830Z,12.40
2023-02-22T18:48:37.631Z,12.43
2023-02-22T18:51:09.817Z,12.48
2023-02-22T18:53:40.980Z,12.47
2023-02-22T18:56:11.051Z,12.40
2023-02-22T18:58:40.224Z,12.37
2023-02-22T19:01:08.458Z,12.29
2023-02-22T19:03:38.723Z,12.39
2023-02-22T19:06:09.173Z,12.42
2023-02-22T19:08:39.633Z,12.38
2023-02-22T19:11:11.544Z,12.34
2023-02-22T19:13:39.967Z,12.30
2023-02-22T19:16:08.622Z,12.31
2023-02-22T19:18:36.676Z,12.35
2023-02-22T19:21:09.020Z,12.40
2023-02-22T19:23:39.543Z,12.42
2023-02-22T19:26:09.397Z,12.42
2023-02-22T19:28:37.539Z,12.42
2023-02-22T19:31:16.066Z,12.41
2023-02-22T19:33:45.277Z,12.46
2023-02-22T19:36:14.917Z,12.50
2023-02-22T19:38:43.368Z,12.56
2023-02-22T19:41:15.740Z,12.64
2023-02-22T19:43:44.205Z,12.69
2023-02-22T19:46:12.819Z,12.71
2023-02-22T19:48:42.344Z,12.70
2023-02-22T19:51:11.779Z,12.68
2023-02-22T19:53:41.384Z,12.72
2023-02-22T19:56:10.794Z,12.74
2023-02-22T19:58:42.397Z,12.70
2023-02-22T20:01:14.612Z,12.67
2023-02-22T20:03:43.635Z,12.65
2023-02-22T20:06:12.303Z,12.63
2023-02-22T20:08:42.345Z,12.63
2023-02-22T20:11:11.626Z,12.68
2023-02-22T20:13:41.797Z,12.73
2023-02-22T20:16:11.022Z,12.71
2023-02-22T20:18:39.019Z,12.72
2023-02-22T20:21:11.100Z,12.73
2023-02-22T20:23:40.780Z,12.74
2023-02-22T20:26:16.443Z,12.72
2023-02-22T20:28:45.950Z,12.71
2023-02-22T20:31:15.572Z,12.69
2023-02-22T20:33:45.737Z,12.68
2023-02-22T20:36:16.394Z,12.65
2023-02-22T20:38:45.262Z,12.62
2023-02-22T20:41:16.364Z,12.52
2023-02-22T20:43:46.392Z,12.44
2023-02-22T20:46:14.482Z,12.45
2023-02-22T20:48:42.509Z,12.47
2023-02-22T20:51:12.611Z,12.51
2023-02-22T20:53:42.086Z,12.50
2023-02-22T20:56:14.689Z,12.47
2023-02-22T20:58:43.228Z,12.48
2023-02-22T21:01:17.182Z,12.44
2023-02-22T21:03:45.454Z,12.41
2023-02-22T21:06:16.671Z,12.40
2023-02-22T21:08:45.718Z,12.41
2023-02-22T21:11:14.854Z,12.42
2023-02-22T21:13:43.790Z,12.40
2023-02-22T21:16:18.513Z,12.37
2023-02-22T21:18:46.686Z,12.36
2023-02-22T21:21:15.053Z,12.35
2023-02-22T21:23:43.430Z,12.34
2023-02-22T21:26:15.775Z,12.33
2023-02-22T21:28:52.121Z,12.30
2023-02-22T21:31:23.962Z,12.25
2023-02-22T21:33:53.859Z,12.22
2023-02-22T21:36:25.597Z,12.19
2023-02-22T21:38:55.202Z,12.21
2023-02-22T21:41:27.678Z,12.21
2023-02-22T21:43:57.363Z,12.17
2023-02-22T21:46:27.882Z,12.14
2023-02-22T21:48:58.747Z,12.14
2023-02-22T21:51:31.567Z,12.14
2023-02-22T21:54:02.003Z,12.16
2023-02-22T21:56:32.414Z,12.17
2023-02-22T21:59:03.729Z,12.19
2023-02-22T22:01:35.936Z,12.22
2023-02-22T22:04:05.786Z,12.23
2023-02-22T22:06:35.750Z,12.23
2023-02-22T22:09:06.730Z,12.30
2023-02-22T22:11:35.591Z,12.28
2023-02-22T22:14:03.709Z,12.25
2023-02-22T22:16:33.229Z,12.28
2023-02-22T22:19:01.270Z,12.26
2023-02-22T22:21:29.457Z,12.22
2023-02-22T22:23:57.598Z,12.20
2023-02-22T22:26:27.474Z,12.26
2023-02-22T22:28:57.539Z,12.27
2023-02-22T22:31:26.958Z,12.26
2023-02-22T22:33:57.326Z,12.21
2023-02-22T22:36:27.399Z,12.19
2023-02-22T22:38:57.640Z,12.14
2023-02-22T22:41:28.237Z,12.15
2023-02-22T22:43:56.805Z,12.14
2023-02-22T22:46:24.868Z,12.06
2023-02-22T22:48:52.859Z,12.05
2023-02-22T22:51:22.758Z,12.05
2023-02-22T22:53:53.064Z,12.04
2023-02-22T22:56:26.480Z,12.01
2023-02-22T22:58:56.628Z,12.00
2023-02-22T23:01:27.862Z,11.99
2023-02-22T23:04:01.339Z,12.00
2023-02-22T23:06:33.434Z,12.04
2023-02-22T23:09:10.469Z,12.06
2023-02-22T23:11:44.500Z,12.06
2023-02-22T23:14:14.938Z,12.04
2023-02-22T23:16:45.117Z,11.99
2023-02-22T23:19:15.723Z,11.99
2023-02-22T23:21:45.113Z,11.96
2023-02-22T23:24:16.322Z,11.91
2023-02-22T23:26:48.772Z,11.89
2023-02-22T23:29:18.262Z,11.84
2023-02-22T23:31:48.756Z,11.76
2023-02-22T23:34:17.581Z,11.79
2023-02-22T23:36:47.792Z,11.74
2023-02-22T23:39:17.909Z,11.71
2023-02-22T23:41:45.952Z,11.66
2023-02-22T23:44:17.729Z,11.72
2023-02-22T23:46:48.645Z,11.76
2023-02-22T23:49:20.514Z,11.74
2023-02-22T23:51:50.399Z,11.75
2023-02-22T23:54:20.606Z,11.76
2023-02-22T23:56:56.756Z,11.75
2023-02-22T23:59:26.071Z,11.73
